Xing Ru Hai — VRPB4 — position and weather

sailwx.info

Track history (hours):
 
Tides and Currents Weather Stations Pressure Air Temp Water Temp Dewpoint Dewpoint Depression Visibility Wind Speed Wind Dir Waves Ship Positions

Xing Ru Hai

Last reported at 2017-Oct-20 02:16 UTC. Time now 2017-Nov-23 17:09 UTC.
Position N 31°05' W 116°40'.
Warning: this ship's position is 34 days out of date.

Length 179 m; draft 9 m.

Type: Cargo ship. MMSI: 477713500.

Date/timePositionNaut miles runAvg speedWind from/ knotsBaromVisibWave heightAir tempDewpointWater temp
2017-Oct-20 02:16N 31°05' W 116°40'412.2
2017-Oct-20 01:58N 31°09' W 116°41'612.0
2017-Oct-20 01:30N 31°14' W 116°42'611.7
2017-Oct-20 00:59N 31°20' W 116°43'611.9
2017-Oct-20 00:29N 31°26' W 116°45'612.0
2017-Oct-20 00:00N 31°32' W 116°46'19 0.8
2017-Oct-19 00:59N 31°49' W 116°38'2 3.7
2017-Oct-19 00:30N 31°48' W 116°40'2 4.8
2017-Oct-18 23:59N 31°48' W 116°43'4 7.8
2017-Oct-18 23:30N 31°46' W 116°47'610.9
2017-Oct-18 22:59N 31°44' W 116°53'511.2
2017-Oct-18 22:30N 31°42' W 116°59'611.5
2017-Oct-18 22:00N 31°39' W 117°05'511.2
2017-Oct-18 21:30N 31°37' W 117°11'3511.6
2017-Oct-18 18:31N 31°23' W 117°48'111.2
2017-Oct-18 18:25N 31°23' W 117°49'511.6
2017-Oct-18 18:00N 31°21' W 117°55'711.4
2017-Oct-18 17:26N 31°18' W 118°02'511.5
2017-Oct-18 16:59N 31°16' W 118°07'711.5
2017-Oct-18 16:20N 31°13' W 118°15'511.4
2017-Oct-18 15:55N 31°11' W 118°20'1211.6
2017-Oct-18 14:53N 31°07' W 118°33'1011.3
2017-Oct-18 13:59N 31°05' W 118°45'511.1
2017-Oct-18 13:30N 31°04' W 118°51'511.1
2017-Oct-18 13:00N 31°02' W 118°57'611.2
2017-Oct-18 12:30N 31°01' W 119°04'611.2
2017-Oct-18 12:00N 31°00' W 119°10'711.5
2017-Oct-18 11:25N 30°59' W 119°18'511.6
2017-Oct-18 11:00N 30°58' W 119°23'611.5
2017-Oct-18 10:30N 30°57' W 119°30'611.4
2017-Oct-18 10:00N 30°55' W 119°36'611.3
2017-Oct-18 09:30N 30°54' W 119°43'611.4
2017-Oct-18 08:59N 30°53' W 119°50'911.3
2017-Oct-18 08:13N 30°51' W 119°59'1611.4
2017-Oct-18 06:49N 30°48' W 120°17'411.6
2017-Oct-18 06:27N 30°47' W 120°22'511.6
2017-Oct-18 06:00N 30°46' W 120°28'1811.6
2017-Oct-18 04:26N 30°43' W 120°49'911.4
2017-Oct-18 03:36N 30°41' W 120°60'111.0
2017-Oct-18 03:30N 30°40' W 121°01'611.3
2017-Oct-18 03:00N 30°39' W 121°08'611.1
2017-Oct-18 02:30N 30°38' W 121°14'511.0
2017-Oct-18 02:00N 30°37' W 121°20'511.0
2017-Oct-18 01:30N 30°36' W 121°26'610.9
2017-Oct-18 01:00N 30°35' W 121°33'611.1
2017-Oct-18 00:30N 30°33' W 121°39'511.0
2017-Oct-18 00:00N 30°32' W 121°45'511.0
2017-Oct-17 23:30N 30°31' W 121°51'510.4
2017-Oct-17 23:00N 30°33' W 121°57'1011.2
2017-Oct-17 22:06N 30°40' W 122°06'111.5
2017-Oct-17 22:00N 30°41' W 122°07'611.5
2017-Oct-17 21:30N 30°44' W 122°12'711.5
2017-Oct-17 20:54N 30°48' W 122°18'411.4
2017-Oct-17 20:30N 30°51' W 122°23'2011.4
2017-Oct-17 18:45N 31°04' W 122°41'311.6
2017-Oct-17 18:27N 31°06' W 122°44'611.1
2017-Oct-17 17:54N 31°10' W 122°50'511.0
2017-Oct-17 17:30N 31°13' W 122°54'511.1
2017-Oct-17 17:00N 31°16' W 122°58'611.4
2017-Oct-17 16:29N 31°20' W 123°04'1011.5
2017-Oct-17 15:39N 31°26' W 123°13'512.1
2017-Oct-17 15:12N 31°29' W 123°18'212.2
2017-Oct-17 15:00N 31°31' W 123°20'911.7
2017-Oct-17 14:16N 31°36' W 123°28'411.2
2017-Oct-17 13:56N 31°39' W 123°31'4511.5
2017-Oct-17 10:01N 32°07' W 124°12'111.7
2017-Oct-17 09:57N 32°07' W 124°13'511.3
2017-Oct-17 09:30N 32°10' W 124°18'611.4
2017-Oct-17 09:00N 32°14' W 124°23'611.4
2017-Oct-17 08:30N 32°18' W 124°28'611.1
2017-Oct-17 08:00N 32°21' W 124°33'611.1
2017-Oct-17 07:30N 32°25' W 124°38'3311.3
2017-Oct-17 04:35N 32°45' W 125°09'111.4
2017-Oct-17 04:30N 32°46' W 125°10'611.4
2017-Oct-17 04:00N 32°49' W 125°15'611.7
2017-Oct-17 03:30N 32°53' W 125°21'1211.4
2017-Oct-17 02:26N 33°00' W 125°32'1411.4
2017-Oct-17 01:11N 33°09' W 125°45'211.4
2017-Oct-17 01:00N 33°11' W 125°47'611.6
2017-Oct-17 00:29N 33°14' W 125°53'  
Track history (hours):
 
Tides and Currents Weather Stations Pressure Air Temp Water Temp Dewpoint Dewpoint Depression Visibility Wind Speed Wind Dir Waves Ship Positions

Xing Ru Hai

Last reported at 2017-Oct-20 02:16 UTC. Time now 2017-Nov-23 17:09 UTC.
Position N 31°05' W 116°40'.
Warning: this ship's position is 34 days out of date.

Length 179 m; draft 9 m.

Type: Cargo ship. MMSI: 477713500.

Date/timePositionNaut miles runAvg speedWind from/ knotsBaromVisibWave heightAir tempDewpointWater temp
2017-Oct-20 02:16N 31°05' W 116°40'412.2
2017-Oct-20 01:58N 31°09' W 116°41'612.0
2017-Oct-20 01:30N 31°14' W 116°42'611.7
2017-Oct-20 00:59N 31°20' W 116°43'611.9
2017-Oct-20 00:29N 31°26' W 116°45'612.0
2017-Oct-20 00:00N 31°32' W 116°46'19 0.8
2017-Oct-19 00:59N 31°49' W 116°38'2 3.7
2017-Oct-19 00:30N 31°48' W 116°40'2 4.8
2017-Oct-18 23:59N 31°48' W 116°43'4 7.8
2017-Oct-18 23:30N 31°46' W 116°47'610.9
2017-Oct-18 22:59N 31°44' W 116°53'511.2
2017-Oct-18 22:30N 31°42' W 116°59'611.5
2017-Oct-18 22:00N 31°39' W 117°05'511.2
2017-Oct-18 21:30N 31°37' W 117°11'3511.6
2017-Oct-18 18:31N 31°23' W 117°48'111.2
2017-Oct-18 18:25N 31°23' W 117°49'511.6
2017-Oct-18 18:00N 31°21' W 117°55'711.4
2017-Oct-18 17:26N 31°18' W 118°02'511.5
2017-Oct-18 16:59N 31°16' W 118°07'711.5
2017-Oct-18 16:20N 31°13' W 118°15'511.4
2017-Oct-18 15:55N 31°11' W 118°20'1211.6
2017-Oct-18 14:53N 31°07' W 118°33'1011.3
2017-Oct-18 13:59N 31°05' W 118°45'511.1
2017-Oct-18 13:30N 31°04' W 118°51'511.1
2017-Oct-18 13:00N 31°02' W 118°57'611.2
2017-Oct-18 12:30N 31°01' W 119°04'611.2
2017-Oct-18 12:00N 31°00' W 119°10'711.5
2017-Oct-18 11:25N 30°59' W 119°18'511.6
2017-Oct-18 11:00N 30°58' W 119°23'611.5
2017-Oct-18 10:30N 30°57' W 119°30'611.4
2017-Oct-18 10:00N 30°55' W 119°36'611.3
2017-Oct-18 09:30N 30°54' W 119°43'611.4
2017-Oct-18 08:59N 30°53' W 119°50'911.3
2017-Oct-18 08:13N 30°51' W 119°59'1611.4
2017-Oct-18 06:49N 30°48' W 120°17'411.6
2017-Oct-18 06:27N 30°47' W 120°22'511.6
2017-Oct-18 06:00N 30°46' W 120°28'1811.6
2017-Oct-18 04:26N 30°43' W 120°49'911.4
2017-Oct-18 03:36N 30°41' W 120°60'111.0
2017-Oct-18 03:30N 30°40' W 121°01'611.3
2017-Oct-18 03:00N 30°39' W 121°08'611.1
2017-Oct-18 02:30N 30°38' W 121°14'511.0
2017-Oct-18 02:00N 30°37' W 121°20'511.0
2017-Oct-18 01:30N 30°36' W 121°26'610.9
2017-Oct-18 01:00N 30°35' W 121°33'611.1
2017-Oct-18 00:30N 30°33' W 121°39'511.0
2017-Oct-18 00:00N 30°32' W 121°45'511.0
2017-Oct-17 23:30N 30°31' W 121°51'510.4
2017-Oct-17 23:00N 30°33' W 121°57'1011.2
2017-Oct-17 22:06N 30°40' W 122°06'111.5
2017-Oct-17 22:00N 30°41' W 122°07'611.5
2017-Oct-17 21:30N 30°44' W 122°12'711.5
2017-Oct-17 20:54N 30°48' W 122°18'411.4
2017-Oct-17 20:30N 30°51' W 122°23'2011.4
2017-Oct-17 18:45N 31°04' W 122°41'311.6
2017-Oct-17 18:27N 31°06' W 122°44'611.1
2017-Oct-17 17:54N 31°10' W 122°50'511.0
2017-Oct-17 17:30N 31°13' W 122°54'511.1
2017-Oct-17 17:00N 31°16' W 122°58'611.4
2017-Oct-17 16:29N 31°20' W 123°04'1011.5
2017-Oct-17 15:39N 31°26' W 123°13'512.1
2017-Oct-17 15:12N 31°29' W 123°18'212.2
2017-Oct-17 15:00N 31°31' W 123°20'911.7
2017-Oct-17 14:16N 31°36' W 123°28'411.2
2017-Oct-17 13:56N 31°39' W 123°31'4511.5
2017-Oct-17 10:01N 32°07' W 124°12'111.7
2017-Oct-17 09:57N 32°07' W 124°13'511.3
2017-Oct-17 09:30N 32°10' W 124°18'611.4
2017-Oct-17 09:00N 32°14' W 124°23'611.4
2017-Oct-17 08:30N 32°18' W 124°28'611.1
2017-Oct-17 08:00N 32°21' W 124°33'611.1
2017-Oct-17 07:30N 32°25' W 124°38'3311.3
2017-Oct-17 04:35N 32°45' W 125°09'111.4
2017-Oct-17 04:30N 32°46' W 125°10'611.4
2017-Oct-17 04:00N 32°49' W 125°15'611.7
2017-Oct-17 03:30N 32°53' W 125°21'1211.4
2017-Oct-17 02:26N 33°00' W 125°32'1411.4
2017-Oct-17 01:11N 33°09' W 125°45'211.4
2017-Oct-17 01:00N 33°11' W 125°47'611.6
2017-Oct-17 00:29N 33°14' W 125°53'  

Dump ship's entire track history